createdAt,value
2022-11-27T00:00:43.254Z,96290.47
2022-11-27T00:03:14.347Z,96290.99
2022-11-27T00:05:44.348Z,96281.13
2022-11-27T00:08:12.961Z,96283.41
2022-11-27T00:10:41.713Z,96285.00
2022-11-27T00:13:10.302Z,96293.47
2022-11-27T00:15:38.961Z,96295.25
2022-11-27T00:18:07.741Z,96294.72
2022-11-27T00:20:36.385Z,96292.13
2022-11-27T00:23:05.354Z,96291.28
2022-11-27T00:25:34.120Z,96288.91
2022-11-27T00:28:02.719Z,96297.09
2022-11-27T00:30:31.417Z,96294.44
2022-11-27T00:33:00.096Z,96298.91
2022-11-27T00:35:28.760Z,96300.50
2022-11-27T00:37:57.400Z,96300.84
2022-11-27T00:40:26.083Z,96310.30
2022-11-27T00:42:54.772Z,96303.30
2022-11-27T00:45:23.495Z,96309.05
2022-11-27T00:47:52.123Z,96305.30
2022-11-27T00:50:21.085Z,96303.30
2022-11-27T00:52:49.662Z,96304.75
2022-11-27T00:55:18.574Z,96309.55
2022-11-27T00:57:47.300Z,96311.98
2022-11-27T01:00:16.852Z,96314.77
2022-11-27T01:02:46.116Z,96306.31
2022-11-27T01:05:14.823Z,96308.84
2022-11-27T01:07:43.699Z,96307.23
2022-11-27T01:10:12.925Z,96303.05
2022-11-27T01:12:41.542Z,96310.65
2022-11-27T01:15:11.055Z,96307.48
2022-11-27T01:17:39.710Z,96302.77
2022-11-27T01:20:09.256Z,96295.34
2022-11-27T01:22:37.882Z,96291.05
2022-11-27T01:25:07.886Z,96287.42
2022-11-27T01:27:36.490Z,96285.73
2022-11-27T01:30:05.768Z,96284.44
2022-11-27T01:32:34.465Z,96284.84
2022-11-27T01:35:03.068Z,96278.53
2022-11-27T01:37:31.711Z,96276.55
2022-11-27T01:40:00.332Z,96276.30
2022-11-27T01:42:28.989Z,96273.34
2022-11-27T01:44:57.910Z,96278.19
2022-11-27T01:47:32.589Z,96284.95
2022-11-27T01:50:04.175Z,96275.36
2022-11-27T01:52:35.826Z,96274.75
2022-11-27T01:55:25.287Z,96273.80
2022-11-27T01:58:02.714Z,96270.31
2022-11-27T02:00:31.542Z,96268.83
2022-11-27T02:03:00.328Z,96270.83
2022-11-27T02:05:30.221Z,96265.55
2022-11-27T02:08:02.104Z,96269.56
2022-11-27T02:10:48.858Z,96266.20
2022-11-27T02:13:41.331Z,96272.77
2022-11-27T02:16:35.650Z,96267.13
2022-11-27T02:19:32.283Z,96274.03
2022-11-27T02:22:13.187Z,96273.89
2022-11-27T02:24:50.877Z,96274.17
2022-11-27T02:27:57.375Z,96277.45
2022-11-27T02:30:26.216Z,96276.52
2022-11-27T02:33:03.279Z,96275.28
2022-11-27T02:35:37.470Z,96261.56
2022-11-27T02:38:18.329Z,96281.95
2022-11-27T02:40:50.024Z,96278.31
2022-11-27T02:43:21.649Z,96277.59
2022-11-27T02:45:52.777Z,96280.98
2022-11-27T02:48:24.383Z,96281.80
2022-11-27T02:50:55.203Z,96277.58
2022-11-27T02:53:29.723Z,96283.81
2022-11-27T02:55:59.514Z,96284.63
2022-11-27T02:58:30.878Z,96283.56
2022-11-27T03:01:01.315Z,96277.69
2022-11-27T03:03:33.447Z,96279.93
2022-11-27T03:06:05.136Z,96275.45
2022-11-27T03:08:49.601Z,96276.14
2022-11-27T03:11:18.997Z,96281.68
2022-11-27T03:13:50.592Z,96288.35
2022-11-27T03:16:22.264Z,96289.61
2022-11-27T03:19:21.818Z,96289.75
2022-11-27T03:21:53.394Z,96288.24
2022-11-27T03:24:22.610Z,96288.44
2022-11-27T03:26:52.748Z,96291.48
2022-11-27T03:29:30.498Z,96293.17
2022-11-27T03:31:59.939Z,96296.81
2022-11-27T03:34:29.719Z,96291.47
2022-11-27T03:36:58.454Z,96290.16
2022-11-27T03:39:28.587Z,96286.11
2022-11-27T03:42:04.363Z,96283.05
2022-11-27T03:45:03.089Z,96272.52
2022-11-27T03:47:34.726Z,96283.91
2022-11-27T03:50:06.358Z,96289.26
2022-11-27T03:52:50.029Z,96279.19
2022-11-27T03:55:21.694Z,96281.97
2022-11-27T03:57:55.907Z,96285.03
2022-11-27T04:00:24.931Z,96277.78
2022-11-27T04:02:54.550Z,96283.86
2022-11-27T04:05:23.446Z,96282.08
2022-11-27T04:07:53.581Z,96273.79
2022-11-27T04:10:22.196Z,96271.52
2022-11-27T04:12:50.948Z,96278.95
2022-11-27T04:15:19.938Z,96277.30
2022-11-27T04:17:48.528Z,96261.68
2022-11-27T04:20:17.485Z,96253.93
2022-11-27T04:22:46.029Z,96274.03
2022-11-27T04:25:14.750Z,96264.55
2022-11-27T04:27:43.369Z,96265.81
2022-11-27T04:30:14.332Z,96272.05
2022-11-27T04:32:43.130Z,96269.66
2022-11-27T04:35:12.464Z,96270.09
2022-11-27T04:37:41.239Z,96272.23
2022-11-27T04:40:12.461Z,96265.50
2022-11-27T04:42:46.241Z,96274.75
2022-11-27T04:45:29.978Z,96285.98
2022-11-27T04:48:12.605Z,96291.11
2022-11-27T04:54:08.414Z,96287.38
2022-11-27T04:56:40.299Z,96281.73
2022-11-27T04:59:08.998Z,96292.59
2022-11-27T05:01:46.351Z,96293.45
2022-11-27T05:04:21.900Z,96292.53
2022-11-27T05:06:53.712Z,96280.17
2022-11-27T05:09:24.864Z,96277.80
2022-11-27T05:11:53.536Z,96276.96
2022-11-27T05:14:27.903Z,96283.08
2022-11-27T05:17:00.467Z,96280.28
2022-11-27T05:19:32.391Z,96289.33
2022-11-27T05:22:08.440Z,96291.66
2022-11-27T05:24:42.931Z,96286.99
2022-11-27T05:27:16.359Z,96288.59
2022-11-27T05:29:46.258Z,96288.75
2022-11-27T05:32:16.630Z,96293.16
2022-11-27T05:34:46.521Z,96297.94
2022-11-27T05:37:19.765Z,96300.42
2022-11-27T05:39:48.167Z,96301.24
2022-11-27T05:42:21.280Z,96304.58
2022-11-27T05:44:53.915Z,96299.41
2022-11-27T05:47:44.438Z,96302.69
2022-11-27T05:49:59.998Z,96310.00
2022-11-27T05:52:36.065Z,96314.14
2022-11-27T05:55:12.853Z,96309.67
2022-11-27T05:57:50.173Z,96302.53
2022-11-27T06:00:32.022Z,96305.60
2022-11-27T06:03:03.984Z,96305.94
2022-11-27T06:05:50.093Z,96309.43
2022-11-27T06:08:27.923Z,96310.49
2022-11-27T06:11:03.943Z,96321.57
2022-11-27T06:13:45.934Z,96324.44
2022-11-27T06:16:25.856Z,96316.77
2022-11-27T06:19:59.350Z,96320.23
2022-11-27T06:21:34.559Z,96313.17
2022-11-27T06:24:19.000Z,96318.28
2022-11-27T06:26:40.224Z,96327.11
2022-11-27T06:29:17.110Z,96327.73
2022-11-27T06:31:56.467Z,96330.75
2022-11-27T06:34:35.080Z,96325.04
2022-11-27T06:40:24.486Z,96329.66
2022-11-27T06:43:01.034Z,96332.48
2022-11-27T06:45:45.318Z,96328.72
2022-11-27T06:48:15.395Z,96332.60
2022-11-27T06:50:52.069Z,96328.48
2022-11-27T06:56:33.180Z,96331.28
2022-11-27T06:59:07.404Z,96332.63
2022-11-27T07:01:36.581Z,96333.05
2022-11-27T07:04:18.214Z,96331.18
2022-11-27T07:06:49.806Z,96336.69
2022-11-27T07:09:25.902Z,96336.61
2022-11-27T07:11:56.312Z,96328.32
2022-11-27T07:14:41.166Z,96327.23
2022-11-27T07:17:14.637Z,96327.88
2022-11-27T07:19:54.051Z,96323.64
2022-11-27T07:22:28.754Z,96330.34
2022-11-27T07:24:59.291Z,96322.72
2022-11-27T07:27:29.897Z,96319.89
2022-11-27T07:29:58.899Z,96319.09
2022-11-27T07:32:29.253Z,96324.25
2022-11-27T07:35:01.178Z,96325.69
2022-11-27T07:37:32.142Z,96329.19
2022-11-27T07:40:08.104Z,96317.84
2022-11-27T07:43:00.576Z,96325.45
2022-11-27T07:45:22.046Z,96319.12
2022-11-27T07:47:58.859Z,96322.27
2022-11-27T07:50:30.955Z,96320.98
2022-11-27T07:53:08.863Z,96327.16
2022-11-27T07:55:45.283Z,96321.28
2022-11-27T07:58:16.634Z,96319.39
2022-11-27T08:01:02.205Z,96320.10
2022-11-27T08:03:34.776Z,96314.47
2022-11-27T08:06:06.300Z,96310.31
2022-11-27T08:08:48.858Z,96310.31
2022-11-27T08:11:27.074Z,96315.83
2022-11-27T08:14:10.971Z,96315.62
2022-11-27T08:16:56.751Z,96313.36
2022-11-27T08:19:35.929Z,96312.82
2022-11-27T08:22:13.373Z,96315.22
2022-11-27T08:24:50.838Z,96316.67
2022-11-27T08:28:29.441Z,96324.08
2022-11-27T08:30:13.337Z,96324.08
2022-11-27T08:35:39.874Z,96323.05
2022-11-27T08:38:27.352Z,96313.64
2022-11-27T08:41:10.254Z,96312.98
2022-11-27T08:42:01.584Z,96316.83
2022-11-27T08:43:53.728Z,96308.55
2022-11-27T08:46:36.327Z,96313.05
2022-11-27T08:52:44.707Z,96305.55
2022-11-27T09:04:35.419Z,96292.75
2022-11-27T09:07:15.098Z,96289.72
2022-11-27T09:09:39.446Z,96287.53
2022-11-27T09:12:17.881Z,96290.98
2022-11-27T09:17:52.589Z,96292.09
2022-11-27T09:20:34.025Z,96282.83
2022-11-27T09:26:00.906Z,96290.34
2022-11-27T09:28:35.147Z,96280.59
2022-11-27T09:34:13.128Z,96273.30
2022-11-27T09:36:48.110Z,96273.19
2022-11-27T09:39:50.042Z,96276.47
2022-11-27T09:43:10.308Z,96274.98
2022-11-27T09:45:48.317Z,96270.91
2022-11-27T09:55:04.608Z,96256.53
2022-11-27T10:00:33.047Z,96248.03
2022-11-27T10:03:20.178Z,96247.16
2022-11-27T10:06:28.004Z,96230.98
2022-11-27T10:09:43.036Z,96234.97
2022-11-27T10:12:35.924Z,96226.25
2022-11-27T10:15:29.009Z,96231.67
2022-11-27T10:28:11.388Z,96153.92
2022-11-27T10:31:08.824Z,96205.50
2022-11-27T10:34:13.732Z,96197.51
2022-11-27T10:40:25.280Z,96192.05
2022-11-27T10:43:14.667Z,96185.77
2022-11-27T11:15:15.490Z,96158.52
2022-11-27T11:43:54.477Z,96120.72
2022-11-27T11:49:40.110Z,96088.14
2022-11-27T12:13:40.621Z,96109.52
2022-11-27T12:16:39.837Z,96098.53
2022-11-27T12:27:41.687Z,96095.55
2022-11-27T12:29:11.081Z,96027.50
2022-11-27T12:32:02.185Z,96083.37
2022-11-27T12:35:14.800Z,96088.48
2022-11-27T12:37:57.194Z,96081.41
2022-11-27T12:40:36.457Z,96081.52
2022-11-27T12:43:28.979Z,96073.97
2022-11-27T12:46:36.692Z,96075.24
2022-11-27T12:49:20.363Z,96073.56
2022-11-27T12:51:57.765Z,96075.34
2022-11-27T12:54:35.468Z,96075.64
2022-11-27T12:57:07.510Z,96073.21
2022-11-27T12:59:43.634Z,96075.03
2022-11-27T13:02:22.829Z,96068.66
2022-11-27T13:04:58.594Z,96074.80
2022-11-27T13:07:40.325Z,96062.94
2022-11-27T13:10:13.910Z,96069.52
2022-11-27T13:12:54.678Z,96063.16
2022-11-27T13:15:29.441Z,96064.91
2022-11-27T13:18:03.904Z,96060.98
2022-11-27T13:20:35.625Z,96065.63
2022-11-27T13:23:04.672Z,96063.39
2022-11-27T13:25:36.340Z,96061.11
2022-11-27T13:28:06.863Z,96060.95
2022-11-27T13:30:51.435Z,96057.78
2022-11-27T13:33:23.148Z,96055.92
2022-11-27T13:35:53.499Z,96056.02
2022-11-27T13:38:28.099Z,96052.37
2022-11-27T13:40:58.690Z,96053.70
2022-11-27T13:43:42.321Z,96047.98
2022-11-27T13:46:12.203Z,96052.77
2022-11-27T13:48:43.960Z,96053.64
2022-11-27T13:51:14.267Z,96050.22
2022-11-27T13:53:44.062Z,96051.38
2022-11-27T13:56:13.770Z,96054.97
2022-11-27T13:58:44.257Z,96055.52
2022-11-27T14:01:24.812Z,96050.55
2022-11-27T14:03:57.883Z,96056.13
2022-11-27T14:09:51.890Z,96056.84
2022-11-27T14:12:29.614Z,96064.49
2022-11-27T14:15:06.975Z,96055.77
2022-11-27T14:17:38.697Z,96053.67
2022-11-27T14:20:12.887Z,96054.94
2022-11-27T14:25:27.143Z,96064.12
2022-11-27T14:28:13.809Z,96058.52
2022-11-27T14:30:45.426Z,96061.20
2022-11-27T14:33:25.948Z,96056.62
2022-11-27T14:36:00.070Z,96052.41
2022-11-27T14:38:31.012Z,96052.28
2022-11-27T14:41:10.763Z,96057.72
2022-11-27T14:43:39.467Z,96055.30
2022-11-27T14:46:11.099Z,96061.46
2022-11-27T14:48:49.959Z,96066.03
2022-11-27T14:51:20.661Z,96060.69
2022-11-27T14:53:51.697Z,96054.14
2022-11-27T14:56:20.637Z,96059.42
2022-11-27T14:58:55.043Z,96058.50
2022-11-27T15:01:26.839Z,96055.32
2022-11-27T15:04:00.744Z,96055.30
2022-11-27T15:06:32.491Z,96052.42
2022-11-27T15:09:29.802Z,96056.57
2022-11-27T15:11:54.466Z,96051.33
2022-11-27T15:14:04.233Z,96050.56
2022-11-27T15:16:33.567Z,96052.66
2022-11-27T15:19:05.152Z,96054.16
2022-11-27T15:21:37.087Z,96052.05
2022-11-27T15:24:09.145Z,96057.03
2022-11-27T15:26:45.005Z,96060.53
2022-11-27T15:29:38.199Z,96062.30
2022-11-27T15:32:28.368Z,96057.89
2022-11-27T15:34:57.243Z,96065.83
2022-11-27T15:37:32.612Z,96061.77
2022-11-27T15:40:04.358Z,96058.95
2022-11-27T15:42:34.651Z,96058.56
2022-11-27T15:45:03.345Z,96060.37
2022-11-27T15:47:35.123Z,96056.00
2022-11-27T15:50:09.234Z,96059.87
2022-11-27T15:52:37.897Z,96054.14
2022-11-27T15:55:06.887Z,96055.69
2022-11-27T15:57:35.575Z,96061.29
2022-11-27T16:00:09.181Z,96059.36
2022-11-27T16:02:38.998Z,96058.04
2022-11-27T16:05:08.855Z,96058.90
2022-11-27T16:07:38.591Z,96053.52
2022-11-27T16:10:08.469Z,96053.92
2022-11-27T16:12:39.039Z,96049.78
2022-11-27T16:15:09.244Z,96048.70
2022-11-27T16:17:37.901Z,96051.98
2022-11-27T16:20:07.902Z,96049.64
2022-11-27T16:22:36.491Z,96052.27
2022-11-27T16:25:05.320Z,96053.59
2022-11-27T16:27:34.104Z,96054.77
2022-11-27T16:30:02.896Z,96054.70
2022-11-27T16:32:31.737Z,96054.45
2022-11-27T16:35:00.489Z,96060.52
2022-11-27T16:37:29.267Z,96059.25
2022-11-27T16:39:58.079Z,96055.05
2022-11-27T16:42:26.607Z,96049.45
2022-11-27T16:44:55.313Z,96055.19
2022-11-27T16:47:26.174Z,96057.69
2022-11-27T16:49:54.996Z,96050.68
2022-11-27T16:52:23.683Z,96050.23
2022-11-27T16:54:55.709Z,96051.72
2022-11-27T16:57:24.457Z,96047.20
2022-11-27T16:59:56.063Z,96050.54
2022-11-27T17:02:24.825Z,96052.50
2022-11-27T17:04:55.017Z,96049.22
2022-11-27T17:07:23.670Z,96050.00
2022-11-27T17:09:55.407Z,96048.22
2022-11-27T17:12:24.004Z,96045.11
2022-11-27T17:14:52.638Z,96045.11
2022-11-27T17:17:21.317Z,96046.06
2022-11-27T17:19:50.000Z,96046.34
2022-11-27T17:22:18.590Z,96045.20
2022-11-27T17:24:51.218Z,96051.41
2022-11-27T17:27:30.483Z,96041.92
2022-11-27T17:29:59.249Z,96046.44
2022-11-27T17:32:39.341Z,96047.93
2022-11-27T17:35:01.071Z,96046.34
2022-11-27T17:37:40.450Z,96041.47
2022-11-27T17:40:15.862Z,96035.31
2022-11-27T17:42:58.072Z,96035.27
2022-11-27T17:45:38.864Z,96033.35
2022-11-27T17:48:13.335Z,96038.55
2022-11-27T17:50:42.111Z,96042.00
2022-11-27T17:53:10.801Z,96036.70
2022-11-27T17:55:39.466Z,96038.58
2022-11-27T17:58:08.417Z,96033.20
2022-11-27T18:00:38.448Z,96030.66
2022-11-27T18:03:26.084Z,96032.20
2022-11-27T18:05:58.065Z,96028.80
2022-11-27T18:08:27.004Z,96033.09
2022-11-27T18:11:05.915Z,96027.12
2022-11-27T18:13:35.180Z,96028.90
2022-11-27T18:16:20.084Z,96032.44
2022-11-27T18:25:08.647Z,96020.55
2022-11-27T18:27:51.925Z,96025.28
2022-11-27T18:30:38.186Z,96020.09
2022-11-27T18:33:09.428Z,96025.80
2022-11-27T18:35:43.498Z,96020.95
2022-11-27T18:38:12.138Z,96021.91
2022-11-27T18:40:41.696Z,96021.10
2022-11-27T18:43:14.517Z,96022.27
2022-11-27T18:45:44.917Z,96022.41
2022-11-27T18:48:18.117Z,96022.44
2022-11-27T18:51:11.691Z,96017.88
2022-11-27T18:53:51.558Z,96021.87
2022-11-27T19:02:43.105Z,96019.09
2022-11-27T19:05:12.688Z,96017.02
2022-11-27T19:07:41.340Z,96015.13
2022-11-27T19:10:10.260Z,96012.81
2022-11-27T19:12:38.911Z,96017.55
2022-11-27T19:15:13.686Z,96021.08
2022-11-27T19:17:42.860Z,96015.59
2022-11-27T19:20:13.504Z,96011.50
2022-11-27T19:22:51.709Z,96015.67
2022-11-27T19:25:22.153Z,96014.16
2022-11-27T19:28:00.391Z,96016.13
2022-11-27T19:30:36.624Z,96013.16
2022-11-27T19:33:05.990Z,96013.84
2022-11-27T19:35:41.610Z,96014.34
2022-11-27T19:38:10.571Z,96016.91
2022-11-27T19:40:48.668Z,96017.23
2022-11-27T19:43:32.719Z,96013.19
2022-11-27T19:46:27.211Z,96018.78
2022-11-27T19:52:15.557Z,96015.13
2022-11-27T19:54:45.742Z,96015.54
2022-11-27T19:57:14.683Z,96025.78
2022-11-27T20:00:09.815Z,96018.31
2022-11-27T20:02:41.097Z,96018.77
2022-11-27T20:05:32.017Z,96018.67
2022-11-27T20:14:29.824Z,96017.03
2022-11-27T20:20:38.748Z,96014.60
2022-11-27T20:23:13.791Z,96016.23
2022-11-27T20:25:44.150Z,96013.83
2022-11-27T20:28:13.618Z,96015.24
2022-11-27T20:30:44.354Z,96015.24
2022-11-27T20:33:31.622Z,96013.70
2022-11-27T20:36:04.452Z,96005.03
2022-11-27T20:38:33.288Z,96007.46
2022-11-27T20:41:13.659Z,96007.46
2022-11-27T20:43:45.643Z,96008.81
2022-11-27T20:46:16.464Z,96002.49
2022-11-27T20:48:57.491Z,95996.91
2022-11-27T20:51:36.715Z,95994.70
2022-11-27T20:54:29.120Z,95998.80
2022-11-27T20:57:13.120Z,96000.61
2022-11-27T21:00:08.082Z,95991.70
2022-11-27T21:02:58.138Z,95991.70
2022-11-27T21:05:58.399Z,95997.53
2022-11-27T21:08:43.314Z,96000.89
2022-11-27T21:11:51.475Z,96000.89
2022-11-27T21:15:05.903Z,95994.14
2022-11-27T21:21:47.981Z,95988.05
2022-11-27T21:27:39.813Z,95985.09
2022-11-27T21:38:06.130Z,95979.67
2022-11-27T21:39:45.694Z,95982.11
2022-11-27T21:51:36.133Z,95978.23
2022-11-27T21:51:56.765Z,95977.58
2022-11-27T21:54:20.813Z,95979.47
2022-11-27T21:57:13.781Z,95975.98
2022-11-27T22:08:57.123Z,95967.68
2022-11-27T22:11:41.872Z,95965.94
2022-11-27T22:14:10.927Z,95963.77
2022-11-27T22:16:45.180Z,95963.77
2022-11-27T22:19:10.825Z,95951.98
2022-11-27T22:21:39.388Z,95951.98
2022-11-27T22:24:12.061Z,95957.84
2022-11-27T22:26:39.012Z,95957.27
2022-11-27T22:29:07.735Z,95952.64
2022-11-27T22:31:36.536Z,95944.61
2022-11-27T22:34:05.204Z,95944.61
2022-11-27T22:36:35.915Z,95941.62
2022-11-27T22:39:08.484Z,95939.23
2022-11-27T22:41:39.563Z,95938.56
2022-11-27T22:44:11.147Z,95940.44
2022-11-27T22:46:42.605Z,95938.65
2022-11-27T22:49:15.783Z,95931.20
2022-11-27T22:51:47.148Z,95905.48
2022-11-27T22:54:18.509Z,95934.50
2022-11-27T22:56:47.978Z,95923.61
2022-11-27T22:59:34.083Z,95924.14
2022-11-27T23:01:48.774Z,95931.71
2022-11-27T23:04:17.527Z,95931.71
2022-11-27T23:06:47.882Z,95930.13
2022-11-27T23:09:18.309Z,95925.00
2022-11-27T23:11:48.072Z,95925.00
2022-11-27T23:14:16.922Z,95929.81
2022-11-27T23:16:45.693Z,95927.02
2022-11-27T23:19:14.441Z,95924.97
2022-11-27T23:21:43.043Z,95929.11
2022-11-27T23:24:16.036Z,95918.03
2022-11-27T23:26:46.026Z,95918.03
2022-11-27T23:29:14.722Z,95918.77
2022-11-27T23:31:43.533Z,95920.70
2022-11-27T23:34:15.440Z,95920.70
2022-11-27T23:36:44.821Z,95921.13
2022-11-27T23:39:15.511Z,95916.09
2022-11-27T23:41:44.285Z,95911.36
2022-11-27T23:44:12.987Z,95915.19
2022-11-27T23:46:41.641Z,95915.19
2022-11-27T23:49:10.346Z,95915.19
2022-11-27T23:51:39.071Z,95911.72
2022-11-27T23:54:10.412Z,95912.58
2022-11-27T23:56:39.864Z,95921.44
2022-11-27T23:59:08.743Z,95917.34
